Roscommon, Michigan
Current Conditions -  °F | °C
As of 10:00 PM on Monday 20 Oct 2014 (Local Time) from KHTL Reporting Station
Overcast Overcast  
Wind Chill: 42°   Ceiling: 1200
Heat Index: 46°   Visibility: 10mi
Dew Point: 42°   Wind: 8mph
Humidity: 86%   Direction: 320°NW
Pressure: 29.9"   Gusts: NA
Location:  44.5°N, 84.59°W
Report Text: KHTL 210200Z AUTO 32007KT 10SM BKN012 BKN025 OVC046 08/06 A2990 RMK AO2 T00780056
Loading
Personal Weather Stations






























Interactive Weather Map
Tropical Storm Tracking
New forecast layout! Learn more

10-Day Weather Forecast

Advertisements
Track Severe Weather on mobile